Ana Sayfa
METAR-TAF:

METAR-TAF

Havaalanları :

New Castle, Pensilvanya, Amerika Birleşik Devletleri

Enlem: 41-01-31N, Boylam: 080-24-48W, yükseklik: 326 m

Güncel hava durumu gözlemi

Rapor saat 22:56 UTC de 36 dakika önce yapıldı.
Rüzgar güney/güneydoğudan 3 kt
Sıcaklık 9°C
Nem 81%
Basınç 1017 hPa
Görüş mesafesi: 16.1 km
3500 ft yükseklikte az bulutlu
4300 ft yükseklikte parçalı bulutlu
8500 ft yükseklikte çok bulutlu

METAR: KUCP 232256Z AUTO 16003KT 10SM FEW035 SCT043 OVC085 09/06 A3002 RMK AO2 SLP186 T00890056

Saat: 19:32 (23:32 UTC)


TAF: eksik

4.000'den fazla havaalanı için hava durumu gözlemleri ve tahminleri (METAR ve TAF raporları).

Kullanılabilir istasyonlar harita üzerinde sarı ve kırmızı noktalarla gösterilir.

İstasyonun adını görmek için fareyi noktanın üzerinde gezdirin.

Sonrasında hava gözlem ve tahminlerini görmek için tıklayın.

Haritayı değiştirmek için: yaklaştırmak için siyah artı işaretli yeşil düğmeye ve uzaklaştırmak için de eksi işaretli düğmeye hızla tıklayın; bitişik haritalar için yeşil okları kullanın.


METAR-TAF: